6NE9 weather

Hoesel Airport
Callaway, Nebraska, United States

Public forecast

Using degrees Fahrenheit for public forecast. Weather courtesy of forecast.io.

Closest aviation weather report (METAR) to Hoesel Airport

Closest report is Broken Bow Municipal Airport, 15.0 nm (27.8 km) NE. Retrieved 2019/10/19 17:53 UTC (1 hour ago):

KBBW 191753Z AUTO VRB03KT 10SM CLR 18/01 A2983 RMK AO2 SLP096 T01830006 10183 20000 58009

Closest aviation forecast (TAF) to Hoesel Airport

Closest forecast is North Platte Regional Airport Lee Bird Field, 37.0 nm (68.5 km) WSW. Retrieved 2019/10/19 18:54 UTC (0 seconds ago):

TAF KLBF 191751Z 1918/2018 29011KT P6SM SKC FM200000 VRB04KT P6SM SKC FM200600 14008KT P6SM BKN200 WS015/19050KT FM201200 24009KT P6SM BKN200 FM201500 28013KT P6SM BKN250